Time;durP1;ratioP1;P1;durP2;ratioP2;P2;SDS_P1;SDS_P2;PMS_P1;PMS_P2;Temp;Humidity;BMP_temperature;BMP_pressure;BME280_temperature;BME280_humidity;BME280_pressure;Samples;Min_cycle;Max_cycle;Signal;HPM_P1;HPM_P2
2022/01/24 00:05:35;;;;;;;6.88;3.90;;;;;;;20.17;nan;101987.13;20400704;28;98643;-68
2022/01/24 00:36:14;;;;;;;4.18;3.35;;;;;;;20.05;nan;102014.84;20401703;28;99019;-68
2022/01/24 00:46:31;;;;;;;4.65;3.38;;;;;;;20.00;nan;102022.94;20401079;28;102950;-68
2022/01/24 00:56:32;;;;;;;4.05;3.15;;;;;;;19.96;nan;102013.50;20394646;28;101745;-69
2022/01/24 01:06:33;;;;;;;5.00;3.50;;;;;;;19.94;nan;102010.91;20397369;28;102878;-68
2022/01/24 01:27:09;;;;;;;4.70;3.20;;;;;;;19.88;nan;102019.09;20406471;28;101800;-68
2022/01/24 01:57:38;;;;;;;4.25;3.40;;;;;;;19.75;nan;102013.53;20404934;28;102648;-68
2022/01/24 02:07:47;;;;;;;4.18;2.97;;;;;;;19.72;nan;102016.28;20403883;28;103808;-67
2022/01/24 02:19:04;;;;;;;5.68;3.72;;;;;;;19.70;nan;102028.66;20408216;28;101935;-68
2022/01/24 02:28:22;;;;;;;4.70;3.30;;;;;;;19.66;nan;102032.31;20408582;28;102006;-68
2022/01/24 02:38:53;;;;;;;5.88;3.30;;;;;;;19.64;nan;102026.28;20410640;28;99205;-68
2022/01/24 02:48:55;;;;;;;4.55;3.67;;;;;;;19.59;nan;102028.25;20403981;28;99134;-69
2022/01/24 02:58:56;;;;;;;4.80;3.58;;;;;;;19.58;nan;102047.56;20409375;28;97589;-68
2022/01/24 03:08:56;;;;;;;5.22;3.55;;;;;;;19.53;nan;102039.91;20407562;28;101282;-68
2022/01/24 03:18:58;;;;;;;5.38;3.70;;;;;;;19.51;nan;102053.09;20401171;28;97798;-68
2022/01/24 03:29:00;;;;;;;6.25;4.40;;;;;;;19.47;nan;102046.28;20405914;28;101007;-67
2022/01/24 03:39:00;;;;;;;6.22;4.28;;;;;;;19.44;nan;102059.53;20406460;28;100570;-68
2022/01/24 03:49:20;;;;;;;6.25;4.25;;;;;;;19.42;nan;102073.66;20405313;28;98657;-68
2022/01/24 03:59:21;;;;;;;5.60;4.20;;;;;;;19.39;nan;102068.56;20403061;28;101536;-67
2022/01/24 04:09:21;;;;;;;6.57;4.30;;;;;;;19.35;nan;102073.09;20399361;28;98150;-68
2022/01/24 04:29:33;;;;;;;6.80;4.50;;;;;;;19.31;nan;102103.00;20404676;28;98666;-68
2022/01/24 04:39:35;;;;;;;5.82;3.83;;;;;;;19.27;nan;102112.78;20404971;28;101950;-68
2022/01/24 04:59:58;;;;;;;7.85;4.57;;;;;;;19.22;nan;102119.19;20392764;28;102021;-69
2022/01/24 05:30:22;;;;;;;7.60;4.57;;;;;;;19.44;nan;102150.66;20369175;28;98893;-68
2022/01/24 05:40:23;;;;;;;10.45;4.78;;;;;;;19.54;nan;102156.38;20369930;28;100929;-66
2022/01/24 05:50:23;;;;;;;10.02;4.90;;;;;;;19.66;nan;102167.22;20402946;28;98934;-66
2022/01/24 06:00:24;;;;;;;8.65;4.55;;;;;;;19.73;nan;102175.69;20399144;28;101088;-66
2022/01/24 06:10:24;;;;;;;20.15;5.38;;;;;;;19.87;nan;102180.38;20393033;28;101903;-69
2022/01/24 06:20:26;;;;;;;23.73;7.60;;;;;;;19.93;nan;102198.53;20379307;28;99388;-67
2022/01/24 06:30:27;;;;;;;31.67;8.55;;;;;;;19.73;nan;102204.59;20395197;28;102385;-67
2022/01/24 06:40:28;;;;;;;19.83;8.10;;;;;;;19.89;nan;102217.13;20417744;28;99975;-68
2022/01/24 06:50:29;;;;;;;24.25;8.00;;;;;;;20.01;nan;102232.38;20419952;28;98866;-66
2022/01/24 07:00:31;;;;;;;17.25;7.80;;;;;;;20.06;nan;102245.34;20416119;28;98078;-67
2022/01/24 07:10:33;;;;;;;18.90;7.50;;;;;;;20.11;nan;102252.09;20430288;28;100040;-68
2022/01/24 07:20:35;;;;;;;17.25;6.82;;;;;;;20.19;nan;102269.31;20420661;28;98931;-68
2022/01/24 07:30:36;;;;;;;19.57;7.40;;;;;;;20.27;nan;102286.47;20412559;28;98203;-66
2022/01/24 07:40:40;;;;;;;17.15;6.95;;;;;;;20.29;nan;102296.94;20398378;28;102387;-65
2022/01/24 07:50:46;;;;;;;14.48;7.05;;;;;;;20.35;nan;102306.31;20416760;28;99166;-65
2022/01/24 08:00:49;;;;;;;14.90;6.43;;;;;;;20.42;nan;102310.41;20412289;28;98289;-66
2022/01/24 08:10:49;;;;;;;12.07;6.30;;;;;;;20.47;nan;102313.72;20411504;28;97433;-66
2022/01/24 08:20:49;;;;;;;12.73;6.75;;;;;;;20.58;nan;102329.00;20416025;28;100872;-66
2022/01/24 08:30:52;;;;;;;14.10;7.43;;;;;;;20.60;nan;102324.53;20421343;28;100100;-66
2022/01/24 08:40:53;;;;;;;14.68;7.60;;;;;;;20.63;nan;102332.31;20409137;28;99543;-67
2022/01/24 08:50:55;;;;;;;12.07;7.15;;;;;;;20.68;nan;102329.44;20421053;28;101926;-67
2022/01/24 09:00:56;;;;;;;13.63;7.15;;;;;;;20.78;nan;102320.25;20406622;28;100195;-69
2022/01/24 09:10:58;;;;;;;9.38;6.47;;;;;;;20.80;nan;102328.97;20403014;28;99732;-68
2022/01/24 09:20:58;;;;;;;12.48;6.55;;;;;;;20.79;nan;102333.34;20412125;28;99679;-68
2022/01/24 09:31:00;;;;;;;13.13;6.22;;;;;;;20.84;nan;102330.53;20410425;28;100697;-67
2022/01/24 09:41:05;;;;;;;13.27;7.25;;;;;;;20.93;nan;102327.47;20424801;28;101697;-68
2022/01/24 09:51:07;;;;;;;10.45;6.80;;;;;;;21.07;nan;102329.47;20416847;28;98182;-67
2022/01/24 10:01:08;;;;;;;9.18;6.15;;;;;;;21.17;nan;102314.09;20425796;28;100755;-65
2022/01/24 10:11:16;;;;;;;9.68;6.13;;;;;;;21.30;nan;102310.88;20427079;28;97701;-67
2022/01/24 10:21:17;;;;;;;9.07;6.05;;;;;;;21.38;nan;102299.03;20411457;28;99784;-66
2022/01/24 10:31:28;;;;;;;10.88;6.88;;;;;;;21.49;nan;102308.22;20416505;28;102348;-68
2022/01/24 10:41:50;;;;;;;11.43;6.82;;;;;;;21.53;nan;102305.38;20421573;28;98810;-68
2022/01/24 10:51:53;;;;;;;10.18;6.28;;;;;;;21.62;nan;102295.31;20425211;28;97546;-68
2022/01/24 11:01:54;;;;;;;;;;;;;;;21.67;nan;102290.69;20428392;28;97771;-68
2022/01/24 11:12:07;;;;;;;8.90;5.82;;;;;;;;;;20418039;28;102157;-67
2022/01/24 11:22:19;;;;;;;8.93;6.23;;;;;;;21.86;nan;102291.47;20394606;28;100384;-68
2022/01/24 11:32:29;;;;;;;11.70;5.65;;;;;;;21.75;nan;102281.47;20392105;28;98432;-70
2022/01/24 11:42:33;;;;;;;11.55;5.65;;;;;;;21.52;nan;102269.38;20404791;28;98549;-65
2022/01/24 11:52:34;;;;;;;10.57;4.90;;;;;;;21.88;nan;102259.75;20413508;28;98260;-68
2022/01/24 12:02:56;;;;;;;10.65;4.70;;;;;;;22.03;nan;102261.63;20401902;28;101884;-68
2022/01/24 12:12:57;;;;;;;6.33;4.20;;;;;;;22.15;nan;102241.63;20402085;28;97450;-67
2022/01/24 12:23:19;;;;;;;7.57;4.38;;;;;;;22.27;nan;102236.66;20397852;28;98234;-67
2022/01/24 12:33:39;;;;;;;6.30;3.85;;;;;;;22.36;nan;102233.53;20400467;28;99734;-66
2022/01/24 12:43:54;;;;;;;5.68;4.07;;;;;;;22.45;nan;102227.78;20404349;28;99140;-66
2022/01/24 12:53:56;;;;;;;4.90;3.85;;;;;;;22.55;nan;102228.16;20412719;28;99901;-66
2022/01/24 13:04:13;;;;;;;11.03;4.20;;;;;;;22.61;nan;102217.25;20354880;28;103788;-68
2022/01/24 13:14:24;;;;;;;5.85;3.90;;;;;;;22.68;nan;102223.91;20372876;28;102197;-66
2022/01/24 13:24:24;;;;;;;7.88;4.30;;;;;;;22.71;nan;102207.88;20416379;28;98801;-66
2022/01/24 13:34:25;;;;;;;7.45;3.80;;;;;;;22.75;nan;102213.00;20420457;28;97673;-67
2022/01/24 13:44:25;;;;;;;5.20;3.55;;;;;;;22.74;nan;102214.81;20424477;28;97802;-67
2022/01/24 13:54:29;;;;;;;4.68;3.40;;;;;;;22.71;nan;102207.03;20415003;28;97693;-68
2022/01/24 14:04:31;;;;;;;8.13;3.40;;;;;;;22.54;nan;102214.09;20408026;28;100172;-68
2022/01/24 14:14:42;;;;;;;6.80;3.95;;;;;;;22.45;nan;102211.97;20399193;28;102178;-67
2022/01/24 14:24:56;;;;;;;5.80;3.83;;;;;;;22.48;nan;102210.94;20396680;28;100761;-68
2022/01/24 14:35:07;;;;;;;9.82;4.45;;;;;;;22.38;nan;102207.94;20358400;28;101006;-67
2022/01/24 14:45:08;;;;;;;13.98;4.47;;;;;;;22.28;nan;102196.16;20373242;28;103467;-68
2022/01/24 14:55:09;;;;;;;11.65;4.40;;;;;;;22.10;nan;102193.53;20328601;28;101118;-67
2022/01/24 15:05:09;;;;;;;9.88;4.53;;;;;;;21.92;nan;102198.00;20404325;28;99013;-68
2022/01/24 15:15:11;;;;;;;13.23;4.93;;;;;;;;;;20396902;28;98849;-68
2022/01/24 15:35:16;;;;;;;18.05;5.38;;;;;;;21.25;nan;102209.19;20392759;28;99618;-67
2022/01/24 15:45:30;;;;;;;15.97;4.33;;;;;;;21.34;nan;102220.22;20384097;28;101420;-66
2022/01/24 15:55:39;;;;;;;8.93;4.10;;;;;;;21.35;nan;102217.50;20413180;28;100062;-67
2022/01/24 16:05:40;;;;;;;9.82;4.40;;;;;;;21.31;nan;102223.84;20420807;28;99440;-68
2022/01/24 16:15:41;;;;;;;8.25;4.40;;;;;;;21.27;nan;102224.94;20412988;28;99643;-67
2022/01/24 16:25:44;;;;;;;12.55;4.00;;;;;;;21.20;nan;102227.03;20399336;28;98618;-69
2022/01/24 16:35:51;;;;;;;8.55;4.30;;;;;;;21.12;nan;102242.34;20409052;28;97812;-68
2022/01/24 16:56:04;;;;;;;18.80;4.97;;;;;;;20.87;nan;102255.78;20407945;28;98156;-67
2022/01/24 17:06:06;;;;;;;11.75;4.50;;;;;;;20.92;nan;102248.53;20412964;28;98644;-67
2022/01/24 17:16:11;;;;;;;14.57;4.25;;;;;;;21.00;nan;102254.28;20412150;28;102882;-68
2022/01/24 17:26:12;;;;;;;15.48;5.22;;;;;;;21.20;nan;102257.75;20389773;28;102616;-69
2022/01/24 17:36:13;;;;;;;12.52;5.78;;;;;;;21.31;nan;102255.47;20384610;28;104329;-68
2022/01/24 17:46:16;;;;;;;16.55;5.68;;;;;;;21.27;nan;102260.03;20390327;28;101162;-68
2022/01/24 17:56:16;;;;;;;12.50;5.53;;;;;;;21.26;nan;102254.84;20353098;28;99684;-67
2022/01/24 18:06:17;;;;;;;10.80;5.55;;;;;;;21.24;nan;102264.63;20403154;28;99459;-66
2022/01/24 18:16:18;;;;;;;9.60;5.28;;;;;;;21.26;nan;102270.63;20407290;28;100558;-66
2022/01/24 18:26:22;;;;;;;8.68;5.03;;;;;;;21.35;nan;102270.22;20405659;28;100268;-68
2022/01/24 18:36:23;;;;;;;11.00;4.40;;;;;;;21.38;nan;102264.78;20404738;28;100936;-68
2022/01/24 18:46:24;;;;;;;8.43;4.72;;;;;;;21.40;nan;102276.09;20394733;28;101725;-68
2022/01/24 18:56:25;;;;;;;7.70;4.30;;;;;;;21.42;nan;102274.25;20392995;28;101206;-68
2022/01/24 19:06:26;;;;;;;7.53;4.10;;;;;;;21.41;nan;102280.44;20385018;28;99685;-68
2022/01/24 19:16:28;;;;;;;7.43;4.20;;;;;;;21.42;nan;102290.06;20396058;28;98886;-68
2022/01/24 19:26:29;;;;;;;14.88;4.55;;;;;;;21.38;nan;102296.41;20391903;28;100233;-68
2022/01/24 19:36:30;;;;;;;6.65;4.60;;;;;;;21.30;nan;102284.53;20409512;28;98457;-67
2022/01/24 19:46:30;;;;;;;7.40;4.18;;;;;;;21.25;nan;102284.75;20415449;28;100304;-66
2022/01/24 19:56:42;;;;;;;10.18;4.32;;;;;;;21.36;nan;102279.81;20395705;28;98686;-68
2022/01/24 20:06:50;;;;;;;13.88;5.00;;;;;;;21.33;nan;102279.13;20394309;28;104232;-68
2022/01/24 20:16:52;;;;;;;10.95;5.35;;;;;;;21.22;nan;102287.53;20405476;28;98734;-67
2022/01/24 20:26:53;;;;;;;16.00;6.13;;;;;;;21.01;nan;102282.34;20394490;28;104321;-68
2022/01/24 20:36:54;;;;;;;8.55;5.30;;;;;;;20.95;nan;102283.47;20414005;28;102055;-68
2022/01/24 20:46:55;;;;;;;15.52;5.47;;;;;;;20.88;nan;102275.94;20413846;28;99380;-68
2022/01/24 20:56:56;;;;;;;9.30;5.35;;;;;;;20.78;nan;102268.44;20334933;28;97822;-69
2022/01/24 21:06:57;;;;;;;8.35;5.28;;;;;;;20.72;nan;102260.00;20349870;28;102313;-69
2022/01/24 21:16:57;;;;;;;10.32;5.63;;;;;;;20.62;nan;102262.16;20378413;28;100405;-69
2022/01/24 21:26:58;;;;;;;9.50;5.18;;;;;;;20.57;nan;102261.53;20391769;28;100377;-67
2022/01/24 21:37:00;;;;;;;9.02;5.57;;;;;;;20.52;nan;102256.47;20407625;28;99396;-68
2022/01/24 21:47:03;;;;;;;7.88;5.00;;;;;;;20.46;nan;102262.00;20405144;28;101005;-68
2022/01/24 21:57:05;;;;;;;9.90;4.88;;;;;;;20.39;nan;102253.50;20339568;28;101644;-68
2022/01/24 22:07:12;;;;;;;8.35;5.18;;;;;;;20.31;nan;102240.69;20363431;28;98601;-68
2022/01/24 22:17:13;;;;;;;8.23;5.38;;;;;;;20.30;nan;102241.63;20335813;28;102473;-68
2022/01/24 22:27:14;;;;;;;7.72;5.03;;;;;;;20.28;nan;102230.31;20354908;28;100421;-68
2022/01/24 22:37:14;;;;;;;7.80;5.35;;;;;;;20.20;nan;102223.69;20361359;28;100750;-69
2022/01/24 22:47:15;;;;;;;6.72;4.70;;;;;;;20.18;nan;102230.78;20386157;28;97746;-68
2022/01/24 22:57:18;;;;;;;8.93;5.07;;;;;;;20.12;nan;102234.53;20399999;28;104183;-68
2022/01/24 23:07:19;;;;;;;7.63;5.20;;;;;;;20.09;nan;102226.78;20385080;28;99250;-68
2022/01/24 23:17:35;;;;;;;8.57;5.63;;;;;;;20.06;nan;102219.03;20383683;28;100963;-68
2022/01/24 23:27:43;;;;;;;7.45;5.35;;;;;;;19.98;nan;102204.44;20387170;28;99905;-68
2022/01/24 23:48:05;;;;;;;9.52;6.30;;;;;;;19.90;nan;102216.22;20364677;28;101374;-68
2022/01/24 23:58:25;;;;;;;10.98;6.18;;;;;;;19.88;nan;102202.28;20331085;28;99124;-68
